createdAt,value
2018-07-25T00:00:11.671Z,77.75
2018-07-25T00:01:11.662Z,77.46
2018-07-25T00:02:11.647Z,77.94
2018-07-25T00:03:11.639Z,77.46
2018-07-25T00:04:11.628Z,77.17
2018-07-25T00:05:11.616Z,78.23
2018-07-25T00:06:11.605Z,77.75
2018-07-25T00:07:11.595Z,76.68
2018-07-25T00:08:11.585Z,77.46
2018-07-25T00:09:11.573Z,78.91
2018-07-25T00:10:11.562Z,78.13
2018-07-25T00:11:11.552Z,77.75
2018-07-25T00:12:11.541Z,77.75
2018-07-25T00:13:11.530Z,79.00
2018-07-25T00:14:11.519Z,79.39
2018-07-25T00:15:11.507Z,79.77
2018-07-25T00:16:11.500Z,79.87
2018-07-25T00:17:11.487Z,79.58
2018-07-25T00:18:11.475Z,79.68
2018-07-25T00:19:11.466Z,80.74
2018-07-25T00:20:11.458Z,80.54
2018-07-25T00:21:11.442Z,81.99
2018-07-25T00:22:11.431Z,81.32
2018-07-25T00:23:11.422Z,82.53
2018-07-25T00:24:11.414Z,83.11
2018-07-25T00:25:11.402Z,82.92
2018-07-25T00:26:11.392Z,82.82
2018-07-25T00:27:11.378Z,84.17
2018-07-25T00:28:11.366Z,83.88
2018-07-25T00:29:11.395Z,84.61
2018-07-25T00:30:11.352Z,84.61
2018-07-25T00:31:11.333Z,85.19
2018-07-25T00:32:11.322Z,85.47
2018-07-25T00:33:11.315Z,85.28
2018-07-25T00:34:11.300Z,85.57
2018-07-25T00:35:11.292Z,85.67
2018-07-25T00:36:11.319Z,86.05
2018-07-25T00:37:11.267Z,86.25
2018-07-25T00:38:11.261Z,86.73
2018-07-25T00:39:11.245Z,87.17
2018-07-25T00:40:11.236Z,86.69
2018-07-25T00:41:11.223Z,87.26
2018-07-25T00:42:11.211Z,86.44
2018-07-25T00:43:11.930Z,86.69
2018-07-25T00:44:11.513Z,86.88
2018-07-25T00:45:13.322Z,86.88
2018-07-25T00:47:12.491Z,86.69
2018-07-25T00:49:13.382Z,86.78
2018-07-25T00:50:11.122Z,86.78
2018-07-25T00:51:11.112Z,87.26
2018-07-25T00:52:11.105Z,86.30
2018-07-25T00:53:11.087Z,86.69
2018-07-25T00:54:11.078Z,86.98
2018-07-25T00:55:11.069Z,86.98
2018-07-25T00:56:11.057Z,86.88
2018-07-25T00:57:11.045Z,86.78
2018-07-25T00:58:11.033Z,87.07
2018-07-25T00:59:11.022Z,86.98
2018-07-25T01:00:11.049Z,87.55
2018-07-25T01:01:11.005Z,88.04
2018-07-25T01:02:10.990Z,87.84
2018-07-25T01:03:10.979Z,87.84
2018-07-25T01:04:10.968Z,87.65
2018-07-25T01:05:10.955Z,86.78
2018-07-25T01:06:10.942Z,87.26
2018-07-25T01:07:10.932Z,86.88
2018-07-25T01:08:10.931Z,87.26
2018-07-25T01:09:10.908Z,87.46
2018-07-25T01:10:10.899Z,86.98
2018-07-25T01:11:10.886Z,87.55
2018-07-25T01:12:10.875Z,87.94
2018-07-25T01:13:10.864Z,87.17
2018-07-25T01:14:10.851Z,87.55
2018-07-25T01:15:10.840Z,87.46
2018-07-25T01:16:10.831Z,87.74
2018-07-25T01:17:10.817Z,86.78
2018-07-25T01:18:10.807Z,87.17
2018-07-25T01:19:10.796Z,87.17
2018-07-25T01:20:10.785Z,87.17
2018-07-25T01:21:10.774Z,87.07
2018-07-25T01:22:10.760Z,87.17
2018-07-25T01:23:10.750Z,86.59
2018-07-25T01:24:10.738Z,85.72
2018-07-25T01:25:10.725Z,84.95
2018-07-25T01:26:10.716Z,84.18
2018-07-25T01:27:10.703Z,84.18
2018-07-25T01:28:10.691Z,83.51
2018-07-25T01:29:10.681Z,83.55
2018-07-25T01:30:10.669Z,83.55
2018-07-25T01:31:10.658Z,82.74
2018-07-25T01:32:10.653Z,82.26
2018-07-25T01:33:10.638Z,82.87
2018-07-25T01:34:10.622Z,82.87
2018-07-25T01:35:10.612Z,84.18
2018-07-25T01:36:10.601Z,83.12
2018-07-25T01:37:10.587Z,83.07
2018-07-25T01:38:10.576Z,82.93
2018-07-25T01:39:10.567Z,83.22
2018-07-25T01:40:10.554Z,82.64
2018-07-25T01:41:10.542Z,82.83
2018-07-25T01:42:10.530Z,83.03
2018-07-25T01:43:10.518Z,83.41
2018-07-25T01:44:10.507Z,82.64
2018-07-25T01:45:10.494Z,82.83
2018-07-25T01:46:10.484Z,83.03
2018-07-25T01:47:10.475Z,82.06
2018-07-25T01:48:10.461Z,83.22
2018-07-25T01:49:10.448Z,83.99
2018-07-25T01:50:10.437Z,83.80
2018-07-25T01:51:10.431Z,83.22
2018-07-25T01:52:10.415Z,83.89
2018-07-25T01:53:10.406Z,83.12
2018-07-25T01:54:10.392Z,83.51
2018-07-25T01:55:10.380Z,84.09
2018-07-25T01:56:10.367Z,83.89
2018-07-25T01:57:10.356Z,83.51
2018-07-25T01:58:10.349Z,83.03
2018-07-25T01:59:10.333Z,83.51
2018-07-25T02:00:10.328Z,83.99
2018-07-25T02:01:10.310Z,83.80
2018-07-25T02:02:10.297Z,84.86
2018-07-25T02:03:10.290Z,85.72
2018-07-25T02:04:10.277Z,84.38
2018-07-25T02:05:10.264Z,85.63
2018-07-25T02:06:10.254Z,85.14
2018-07-25T02:07:10.241Z,85.63
2018-07-25T02:08:10.257Z,86.11
2018-07-25T02:09:10.216Z,85.34
2018-07-25T02:10:10.209Z,84.86
2018-07-25T02:11:10.194Z,83.80
2018-07-25T02:12:10.183Z,85.43
2018-07-25T02:13:10.170Z,85.43
2018-07-25T02:14:10.159Z,86.40
2018-07-25T02:15:10.148Z,85.05
2018-07-25T02:16:10.135Z,84.76
2018-07-25T02:17:10.124Z,85.34
2018-07-25T02:18:10.114Z,83.99
2018-07-25T02:19:10.100Z,84.18
2018-07-25T02:20:10.090Z,83.70
2018-07-25T02:21:10.078Z,83.41
2018-07-25T02:22:10.065Z,84.47
2018-07-25T02:23:10.053Z,84.47
2018-07-25T02:24:10.043Z,83.55
2018-07-25T02:25:10.030Z,84.12
2018-07-25T02:26:10.018Z,84.03
2018-07-25T02:27:10.007Z,84.42
2018-07-25T02:28:09.996Z,84.18
2018-07-25T02:29:09.986Z,84.76
2018-07-25T02:30:09.977Z,84.09
2018-07-25T02:31:09.966Z,84.95
2018-07-25T02:32:09.949Z,85.53
2018-07-25T02:33:09.936Z,85.53
2018-07-25T02:34:09.924Z,85.53
2018-07-25T02:35:09.913Z,84.86
2018-07-25T02:36:09.908Z,85.72
2018-07-25T02:37:09.890Z,85.63
2018-07-25T02:38:09.879Z,85.05
2018-07-25T02:39:09.866Z,85.72
2018-07-25T02:40:09.855Z,85.72
2018-07-25T02:41:09.843Z,85.53
2018-07-25T02:42:09.836Z,84.09
2018-07-25T02:43:09.819Z,85.63
2018-07-25T02:44:09.810Z,84.86
2018-07-25T02:45:09.800Z,84.86
2018-07-25T02:46:09.789Z,83.99
2018-07-25T02:47:09.775Z,85.24
2018-07-25T02:48:09.767Z,85.82
2018-07-25T02:49:09.768Z,85.63
2018-07-25T02:50:09.741Z,84.18
2018-07-25T02:51:09.727Z,85.34
2018-07-25T02:52:09.718Z,84.47
2018-07-25T02:53:09.703Z,85.72
2018-07-25T02:54:09.693Z,86.01
2018-07-25T02:55:09.680Z,86.21
2018-07-25T02:56:09.669Z,86.21
2018-07-25T02:57:09.658Z,85.63
2018-07-25T02:58:09.649Z,85.53
2018-07-25T02:59:09.635Z,85.72
2018-07-25T03:00:09.623Z,86.21
2018-07-25T03:01:09.613Z,86.40
2018-07-25T03:02:09.598Z,85.24
2018-07-25T03:03:09.588Z,85.82
2018-07-25T03:04:09.576Z,85.82
2018-07-25T03:05:09.563Z,86.01
2018-07-25T03:06:09.555Z,85.63
2018-07-25T03:07:09.540Z,85.72
2018-07-25T03:08:09.527Z,86.78
2018-07-25T03:09:09.600Z,87.26
2018-07-25T03:10:09.502Z,86.59
2018-07-25T03:11:09.492Z,86.98
2018-07-25T03:12:09.482Z,86.49
2018-07-25T03:13:09.468Z,87.74
2018-07-25T03:14:09.456Z,86.88
2018-07-25T03:16:09.431Z,86.78
2018-07-25T03:17:09.627Z,86.88
2018-07-25T03:18:09.408Z,85.72
2018-07-25T03:19:09.396Z,86.69
2018-07-25T03:20:09.395Z,86.69
2018-07-25T03:21:09.377Z,86.88
2018-07-25T03:22:09.364Z,86.88
2018-07-25T03:23:09.350Z,86.49
2018-07-25T03:24:09.338Z,86.78
2018-07-25T03:25:09.325Z,87.84
2018-07-25T03:26:09.315Z,86.98
2018-07-25T03:27:09.305Z,87.65
2018-07-25T03:28:09.293Z,87.94
2018-07-25T03:29:09.286Z,87.55
2018-07-25T03:30:09.287Z,87.65
2018-07-25T03:31:09.260Z,87.46
2018-07-25T03:32:09.245Z,87.17
2018-07-25T03:33:09.233Z,86.78
2018-07-25T03:34:09.219Z,87.46
2018-07-25T03:35:09.206Z,88.13
2018-07-25T03:36:09.197Z,86.69
2018-07-25T03:37:09.184Z,87.74
2018-07-25T03:38:09.172Z,87.46
2018-07-25T03:39:09.159Z,88.04
2018-07-25T03:40:09.148Z,88.13
2018-07-25T03:41:09.142Z,87.74
2018-07-25T03:42:09.125Z,87.65
2018-07-25T03:43:09.114Z,87.07
2018-07-25T03:44:09.102Z,88.61
2018-07-25T03:45:09.091Z,88.04
2018-07-25T03:46:09.078Z,88.90
2018-07-25T03:47:09.065Z,87.98
2018-07-25T03:48:09.055Z,88.42
2018-07-25T03:49:09.042Z,87.65
2018-07-25T03:50:09.035Z,87.94
2018-07-25T03:51:09.019Z,87.55
2018-07-25T03:52:09.009Z,87.60
2018-07-25T03:53:08.999Z,87.60
2018-07-25T03:54:08.981Z,86.92
2018-07-25T03:55:08.978Z,86.63
2018-07-25T03:56:08.963Z,87.02
2018-07-25T03:57:08.948Z,87.02
2018-07-25T03:58:08.935Z,87.88
2018-07-25T03:59:08.925Z,87.60
2018-07-25T04:00:08.912Z,87.60
2018-07-25T04:01:08.904Z,87.30
2018-07-25T04:02:08.895Z,87.21
2018-07-25T04:03:08.883Z,86.92
2018-07-25T04:04:08.866Z,86.73
2018-07-25T04:05:08.853Z,86.82
2018-07-25T04:06:08.847Z,87.30
2018-07-25T04:07:08.830Z,86.82
2018-07-25T04:08:08.843Z,86.54
2018-07-25T04:09:08.809Z,85.86
2018-07-25T04:10:08.796Z,86.63
2018-07-25T04:11:08.790Z,86.68
2018-07-25T04:12:08.774Z,86.00
2018-07-25T04:13:08.766Z,85.91
2018-07-25T04:14:08.749Z,86.58
2018-07-25T04:15:08.738Z,86.48
2018-07-25T04:16:08.734Z,85.91
2018-07-25T04:17:08.719Z,86.68
2018-07-25T04:18:08.706Z,86.39
2018-07-25T04:19:08.692Z,86.58
2018-07-25T04:20:08.682Z,86.10
2018-07-25T04:21:08.671Z,86.48
2018-07-25T04:22:08.657Z,86.68
2018-07-25T04:23:08.646Z,85.42
2018-07-25T04:24:08.637Z,85.52
2018-07-25T04:25:08.625Z,85.03
2018-07-25T04:26:08.612Z,85.42
2018-07-25T04:27:08.601Z,85.56
2018-07-25T04:28:08.592Z,84.98
2018-07-25T04:29:08.579Z,84.79
2018-07-25T04:30:08.571Z,84.89
2018-07-25T04:31:08.559Z,84.50
2018-07-25T04:32:08.546Z,84.59
2018-07-25T04:33:08.532Z,84.79
2018-07-25T04:34:08.523Z,84.50
2018-07-25T04:35:08.511Z,84.31
2018-07-25T04:36:08.502Z,84.21
2018-07-25T04:37:08.488Z,84.11
2018-07-25T04:38:08.479Z,83.92
2018-07-25T04:39:08.466Z,83.83
2018-07-25T04:40:08.454Z,83.67
2018-07-25T04:41:08.441Z,83.77
2018-07-25T04:42:08.432Z,83.73
2018-07-25T04:43:08.422Z,84.06
2018-07-25T04:44:08.409Z,83.48
2018-07-25T04:45:08.397Z,83.67
2018-07-25T04:46:08.427Z,83.87
2018-07-25T04:47:08.376Z,84.16
2018-07-25T04:48:08.365Z,83.09
2018-07-25T04:49:08.352Z,83.77
2018-07-25T04:50:08.341Z,84.35
2018-07-25T04:51:08.331Z,83.67
2018-07-25T04:52:08.321Z,83.67
2018-07-25T04:53:08.309Z,83.67
2018-07-25T04:54:08.298Z,83.67
2018-07-25T04:55:08.287Z,83.87
2018-07-25T04:56:08.289Z,84.35
2018-07-25T04:57:08.265Z,83.58
2018-07-25T04:58:08.252Z,84.16
2018-07-25T04:59:08.249Z,83.00
2018-07-25T05:00:08.232Z,83.00
2018-07-25T05:01:08.222Z,82.81
2018-07-25T05:02:08.209Z,83.19
2018-07-25T05:03:08.195Z,83.29
2018-07-25T05:04:08.190Z,83.00
2018-07-25T05:05:08.180Z,83.09
2018-07-25T05:06:08.168Z,83.09
2018-07-25T05:07:08.168Z,82.03
2018-07-25T05:08:08.142Z,82.42
2018-07-25T05:09:08.142Z,83.09
2018-07-25T05:10:08.120Z,83.48
2018-07-25T05:11:08.108Z,83.00
2018-07-25T05:12:08.098Z,83.39
2018-07-25T05:13:08.091Z,83.48
2018-07-25T05:14:08.081Z,83.00
2018-07-25T05:15:08.066Z,84.25
2018-07-25T05:16:08.055Z,83.77
2018-07-25T05:17:08.041Z,84.35
2018-07-25T05:18:08.031Z,83.77
2018-07-25T05:19:08.021Z,83.67
2018-07-25T05:20:08.014Z,83.39
2018-07-25T05:21:07.998Z,82.51
2018-07-25T05:22:07.989Z,82.07
2018-07-25T05:23:08.004Z,82.36
2018-07-25T05:24:07.965Z,81.59
2018-07-25T05:25:07.952Z,82.07
2018-07-25T05:26:07.942Z,82.26
2018-07-25T05:27:07.931Z,81.98
2018-07-25T05:28:07.924Z,81.68
2018-07-25T05:29:07.910Z,82.65
2018-07-25T05:30:07.963Z,82.46
2018-07-25T05:31:07.892Z,82.36
2018-07-25T05:32:07.896Z,81.78
2018-07-25T05:33:07.864Z,81.11
2018-07-25T05:34:07.853Z,81.59
2018-07-25T05:35:07.846Z,81.59
2018-07-25T05:36:07.837Z,82.17
2018-07-25T05:37:07.820Z,81.11
2018-07-25T05:38:07.861Z,80.72
2018-07-25T05:39:07.803Z,81.05
2018-07-25T05:40:07.790Z,80.33
2018-07-25T05:41:07.777Z,80.57
2018-07-25T05:42:07.768Z,81.63
2018-07-25T05:43:07.757Z,80.66
2018-07-25T05:44:07.749Z,80.57
2018-07-25T05:45:07.735Z,80.95
2018-07-25T05:46:07.733Z,80.95
2018-07-25T05:47:07.714Z,81.44
2018-07-25T05:48:07.706Z,82.02
2018-07-25T05:49:07.691Z,81.63
2018-07-25T05:50:07.680Z,81.05
2018-07-25T05:51:07.670Z,80.95
2018-07-25T05:52:07.658Z,80.57
2018-07-25T05:53:07.648Z,80.47
2018-07-25T05:54:07.637Z,80.57
2018-07-25T05:55:07.630Z,80.86
2018-07-25T05:56:07.617Z,80.18
2018-07-25T05:57:07.605Z,80.28
2018-07-25T05:58:07.593Z,81.05
2018-07-25T05:59:07.583Z,80.76
2018-07-25T06:00:07.572Z,81.44
2018-07-25T06:01:07.560Z,81.63
2018-07-25T06:02:07.555Z,80.99
2018-07-25T06:03:07.566Z,80.61
2018-07-25T06:04:07.530Z,80.80
2018-07-25T06:05:07.527Z,80.61
2018-07-25T06:06:07.635Z,80.32
2018-07-25T06:07:07.501Z,79.83
2018-07-25T06:08:07.488Z,79.45
2018-07-25T06:09:07.476Z,79.35
2018-07-25T06:10:07.466Z,78.67
2018-07-25T06:11:07.459Z,78.52
2018-07-25T06:12:07.452Z,78.71
2018-07-25T06:13:07.460Z,78.13
2018-07-25T06:14:07.451Z,77.75
2018-07-25T06:15:07.414Z,78.52
2018-07-25T06:16:07.402Z,78.42
2018-07-25T06:17:07.393Z,78.91
2018-07-25T06:18:07.377Z,79.68
2018-07-25T06:19:07.370Z,78.71
2018-07-25T06:20:07.363Z,78.52
2018-07-25T06:21:07.351Z,78.17
2018-07-25T06:22:07.343Z,77.26
2018-07-25T06:23:07.327Z,77.50
2018-07-25T06:24:07.319Z,77.88
2018-07-25T06:25:07.305Z,76.72
2018-07-25T06:26:07.297Z,76.82
2018-07-25T06:27:07.283Z,76.72
2018-07-25T06:28:07.274Z,76.82
2018-07-25T06:29:07.273Z,77.50
2018-07-25T06:30:07.255Z,77.30
2018-07-25T06:31:07.245Z,76.72
2018-07-25T06:32:07.232Z,76.18
2018-07-25T06:33:07.224Z,76.76
2018-07-25T06:34:07.211Z,76.56
2018-07-25T06:35:07.201Z,76.56
2018-07-25T06:36:07.194Z,76.66
2018-07-25T06:37:07.182Z,75.70
2018-07-25T06:38:07.169Z,74.34
2018-07-25T06:39:07.159Z,75.21
2018-07-25T06:40:07.149Z,74.82
2018-07-25T06:41:07.140Z,74.82
2018-07-25T06:42:07.129Z,74.43
2018-07-25T06:43:07.123Z,74.24
2018-07-25T06:44:07.117Z,74.47
2018-07-25T06:45:07.096Z,74.08
2018-07-25T06:46:07.089Z,74.28
2018-07-25T06:47:07.079Z,74.28
2018-07-25T06:48:07.075Z,74.38
2018-07-25T06:49:07.063Z,74.86
2018-07-25T06:50:07.046Z,74.76
2018-07-25T06:51:07.035Z,74.96
2018-07-25T06:52:07.039Z,73.89
2018-07-25T06:53:07.017Z,74.38
2018-07-25T06:54:07.006Z,74.08
2018-07-25T06:55:06.994Z,74.38
2018-07-25T06:56:06.985Z,73.25
2018-07-25T06:57:06.974Z,73.93
2018-07-25T06:58:06.968Z,74.32
2018-07-25T06:59:06.956Z,74.12
2018-07-25T07:00:06.947Z,72.96
2018-07-25T07:01:06.940Z,72.77
2018-07-25T07:02:06.931Z,72.22
2018-07-25T07:03:06.921Z,72.89
2018-07-25T07:04:06.911Z,72.51
2018-07-25T07:05:06.896Z,72.22
2018-07-25T07:06:06.886Z,71.64
2018-07-25T07:07:06.877Z,70.67
2018-07-25T07:08:06.873Z,72.41
2018-07-25T07:09:06.859Z,72.16
2018-07-25T07:10:06.849Z,71.25
2018-07-25T07:11:06.840Z,71.48
2018-07-25T07:12:06.888Z,70.80
2018-07-25T07:13:06.821Z,72.35
2018-07-25T07:14:06.813Z,70.80
2018-07-25T07:15:06.802Z,70.54
2018-07-25T07:16:06.792Z,70.25
2018-07-25T07:17:06.780Z,69.48
2018-07-25T07:18:06.776Z,67.83
2018-07-25T07:19:06.763Z,69.38
2018-07-25T07:20:06.755Z,69.90
2018-07-25T07:21:06.744Z,67.24
2018-07-25T07:22:06.735Z,68.73
2018-07-25T07:23:06.728Z,68.35
2018-07-25T07:24:06.781Z,69.22
2018-07-25T07:25:06.709Z,68.25
2018-07-25T07:26:06.708Z,65.92
2018-07-25T07:27:06.690Z,66.53
2018-07-25T07:28:06.681Z,66.92
2018-07-25T07:29:06.674Z,64.49
2018-07-25T07:30:06.670Z,64.49
2018-07-25T07:31:06.661Z,65.08
2018-07-25T07:32:06.643Z,65.20
2018-07-25T07:33:06.638Z,64.91
2018-07-25T07:34:06.635Z,64.04
2018-07-25T07:35:06.652Z,63.75
2018-07-25T07:36:06.614Z,60.74
2018-07-25T07:37:06.598Z,61.51
2018-07-25T07:38:06.590Z,61.61
2018-07-25T07:39:06.586Z,62.19
2018-07-25T07:40:06.574Z,61.90
2018-07-25T07:41:06.571Z,62.38
2018-07-25T07:42:06.558Z,61.64
2018-07-25T07:43:06.553Z,60.47
2018-07-25T07:44:06.555Z,60.38
2018-07-25T07:45:06.532Z,60.50
2018-07-25T07:46:06.524Z,59.72
2018-07-25T07:47:06.513Z,59.95
2018-07-25T07:48:06.505Z,60.63
2018-07-25T07:49:06.497Z,60.36
2018-07-25T07:50:06.490Z,59.42
2018-07-25T07:51:06.489Z,58.99
2018-07-25T07:52:06.477Z,56.29
2018-07-25T07:53:06.466Z,55.15
2018-07-25T07:54:06.488Z,53.44
2018-07-25T07:55:06.453Z,50.20
2018-07-25T07:56:06.443Z,49.63
2018-07-25T07:57:06.432Z,47.23
2018-07-25T07:58:06.460Z,46.08
2018-07-25T07:59:06.416Z,44.82
2018-07-25T08:00:06.408Z,43.29
2018-07-25T08:01:06.407Z,43.51
2018-07-25T08:02:06.394Z,41.39
2018-07-25T08:03:09.210Z,40.92
2018-07-25T08:04:06.379Z,39.34
2018-07-25T08:05:06.453Z,40.05
2018-07-25T08:06:06.366Z,40.33
2018-07-25T08:07:06.363Z,40.74
2018-07-25T08:08:06.357Z,40.96
2018-07-25T08:09:06.348Z,39.48
2018-07-25T08:11:06.356Z,39.34
2018-07-25T08:12:06.334Z,39.58
2018-07-25T08:13:06.345Z,38.64
2018-07-25T08:14:06.339Z,38.28
2018-07-25T08:15:06.316Z,34.82
2018-07-25T08:16:06.315Z,36.02
2018-07-25T08:17:06.325Z,35.83
2018-07-25T08:18:06.303Z,36.32
2018-07-25T08:19:06.355Z,38.54
2018-07-25T08:20:06.301Z,39.48
2018-07-25T08:21:06.320Z,40.33
2018-07-25T08:22:06.287Z,41.49
2018-07-25T08:23:06.283Z,42.14
2018-07-25T08:24:06.280Z,42.71
2018-07-25T08:25:06.279Z,43.96
2018-07-25T08:26:06.272Z,46.10
2018-07-25T08:27:06.270Z,45.51
2018-07-25T08:28:06.267Z,44.31
2018-07-25T08:29:06.260Z,46.08
2018-07-25T08:30:06.257Z,45.49
2018-07-25T08:31:06.257Z,45.49
2018-07-25T08:32:06.249Z,47.33
2018-07-25T08:33:06.244Z,47.42
2018-07-25T08:34:06.239Z,47.13
2018-07-25T08:35:06.233Z,44.85
2018-07-25T08:36:06.232Z,45.44
2018-07-25T08:37:06.228Z,46.01
2018-07-25T08:38:06.223Z,46.30
2018-07-25T08:39:06.220Z,47.08
2018-07-25T08:40:06.214Z,47.16
2018-07-25T08:41:06.213Z,48.94
2018-07-25T08:42:06.214Z,48.82
2018-07-25T08:43:06.200Z,49.02
2018-07-25T08:44:06.198Z,49.21
2018-07-25T08:45:06.204Z,49.21
2018-07-25T08:46:06.186Z,46.28
2018-07-25T08:47:06.182Z,47.26
2018-07-25T08:48:06.177Z,49.80
2018-07-25T08:49:06.171Z,50.59
2018-07-25T08:50:06.167Z,49.21
2018-07-25T08:51:06.173Z,49.41
2018-07-25T08:52:06.157Z,50.10
2018-07-25T08:53:06.152Z,49.97
2018-07-25T08:54:06.150Z,49.87
2018-07-25T08:55:06.144Z,50.88
2018-07-25T08:56:06.137Z,48.99
2018-07-25T08:57:06.133Z,49.58
2018-07-25T08:58:06.153Z,48.41
2018-07-25T08:59:06.134Z,50.46
2018-07-25T09:00:06.119Z,50.37
2018-07-25T09:01:06.114Z,50.27
2018-07-25T09:02:06.107Z,49.09
2018-07-25T09:03:06.104Z,48.99
2018-07-25T09:04:06.105Z,49.19
2018-07-25T09:05:06.092Z,50.27
2018-07-25T09:06:06.088Z,49.29
2018-07-25T09:07:06.084Z,49.87
2018-07-25T09:08:06.077Z,49.97
2018-07-25T09:09:06.090Z,50.37
2018-07-25T09:10:06.099Z,50.37
2018-07-25T09:11:06.061Z,45.97
2018-07-25T09:12:06.061Z,48.70
2018-07-25T09:13:06.137Z,46.55
2018-07-25T09:14:06.047Z,45.18
2018-07-25T09:15:06.050Z,45.37
2018-07-25T09:16:06.040Z,48.31
2018-07-25T09:17:06.031Z,48.70
2018-07-25T09:18:06.028Z,46.06
2018-07-25T09:19:06.070Z,46.16
2018-07-25T09:20:06.016Z,47.14
2018-07-25T09:21:06.010Z,48.82
2018-07-25T09:22:06.007Z,45.98
2018-07-25T09:23:05.999Z,47.06
2018-07-25T09:24:05.994Z,46.67
2018-07-25T09:25:06.049Z,45.10
2018-07-25T09:26:05.985Z,46.08
2018-07-25T09:27:05.978Z,45.01
2018-07-25T09:28:05.971Z,44.52
2018-07-25T09:29:05.967Z,45.30
2018-07-25T09:30:05.961Z,44.42
2018-07-25T09:31:05.957Z,44.34
2018-07-25T09:32:05.953Z,45.81
2018-07-25T09:33:05.953Z,45.23
2018-07-25T09:34:05.975Z,42.97
2018-07-25T09:35:05.935Z,43.95
2018-07-25T09:36:05.931Z,44.54
2018-07-25T09:37:05.927Z,43.66
2018-07-25T09:38:05.919Z,43.76
2018-07-25T09:39:05.919Z,43.66
2018-07-25T09:40:05.915Z,43.68
2018-07-25T09:41:05.965Z,42.78
2018-07-25T09:42:05.900Z,44.24
2018-07-25T09:43:05.892Z,44.17
2018-07-25T09:44:05.890Z,44.37
2018-07-25T09:45:05.882Z,42.02
2018-07-25T09:46:05.878Z,43.09
2018-07-25T09:47:05.915Z,44.15
2018-07-25T09:48:05.867Z,42.41
2018-07-25T09:49:05.862Z,41.92
2018-07-25T09:50:05.860Z,43.58
2018-07-25T09:51:05.849Z,43.48
2018-07-25T09:52:05.847Z,43.09
2018-07-25T09:53:05.856Z,43.77
2018-07-25T09:54:05.862Z,44.95
2018-07-25T09:55:05.834Z,43.58
2018-07-25T09:56:05.827Z,44.85
2018-07-25T09:57:05.827Z,44.85
2018-07-25T09:58:05.817Z,43.88
2018-07-25T09:59:05.844Z,44.27
2018-07-25T10:00:05.805Z,44.56
2018-07-25T10:01:05.929Z,45.34
2018-07-25T10:02:05.811Z,44.85
2018-07-25T10:03:05.791Z,45.05
2018-07-25T10:04:05.808Z,44.27
2018-07-25T10:05:05.780Z,44.76
2018-07-25T10:06:05.784Z,46.03
2018-07-25T10:07:05.796Z,45.83
2018-07-25T10:08:05.764Z,46.03
2018-07-25T10:09:05.758Z,46.03
2018-07-25T10:10:05.752Z,44.66
2018-07-25T10:11:05.745Z,43.48
2018-07-25T10:12:05.742Z,44.27
2018-07-25T10:13:05.737Z,43.29
2018-07-25T10:14:05.740Z,44.27
2018-07-25T10:15:05.800Z,43.29
2018-07-25T10:16:05.724Z,43.09
2018-07-25T10:17:05.716Z,44.07
2018-07-25T10:18:05.712Z,44.07
2018-07-25T10:19:05.734Z,43.68
2018-07-25T10:20:05.711Z,42.58
2018-07-25T10:21:05.696Z,43.27
2018-07-25T10:22:05.713Z,45.03
2018-07-25T10:23:05.692Z,40.92
2018-07-25T10:24:05.681Z,41.70
2018-07-25T10:25:05.715Z,43.37
2018-07-25T10:26:05.673Z,42.29
2018-07-25T10:27:05.665Z,41.89
2018-07-25T10:28:05.673Z,43.37
2018-07-25T10:29:05.678Z,41.70
2018-07-25T10:30:05.652Z,43.68
2018-07-25T10:31:05.648Z,43.09
2018-07-25T10:32:05.642Z,43.77
2018-07-25T10:33:05.674Z,43.38
2018-07-25T10:34:05.633Z,42.21
2018-07-25T10:35:05.624Z,43.29
2018-07-25T10:36:05.621Z,44.95
2018-07-25T10:37:05.615Z,44.09
2018-07-25T10:38:05.618Z,45.47
2018-07-25T10:39:05.642Z,45.95
2018-07-25T10:40:05.605Z,47.74
2018-07-25T10:41:05.597Z,45.39
2018-07-25T10:42:05.589Z,43.13
2018-07-25T10:43:05.584Z,44.31
2018-07-25T10:44:05.580Z,44.31
2018-07-25T10:45:05.580Z,44.90
2018-07-25T10:46:05.570Z,44.02
2018-07-25T10:47:05.566Z,43.43
2018-07-25T10:48:05.560Z,43.04
2018-07-25T10:49:05.559Z,44.19
2018-07-25T10:50:05.552Z,43.41
2018-07-25T10:51:05.545Z,43.31
2018-07-25T10:52:05.545Z,43.60
2018-07-25T10:53:05.540Z,44.19
2018-07-25T10:54:05.529Z,45.95
2018-07-25T10:55:05.527Z,43.31
2018-07-25T10:56:05.520Z,45.49
2018-07-25T10:57:05.515Z,44.48
2018-07-25T10:58:05.512Z,46.66
2018-07-25T10:59:05.513Z,43.52
2018-07-25T11:00:05.506Z,43.23
2018-07-25T11:01:05.494Z,43.43
2018-07-25T11:02:05.507Z,42.65
2018-07-25T11:03:05.491Z,44.62
2018-07-25T11:04:05.481Z,42.76
2018-07-25T11:05:05.479Z,44.43
2018-07-25T11:06:05.475Z,43.94
2018-07-25T11:07:05.466Z,43.45
2018-07-25T11:08:05.461Z,41.98
2018-07-25T11:09:05.458Z,42.10
2018-07-25T11:10:05.458Z,44.45
2018-07-25T11:11:05.447Z,44.55
2018-07-25T11:12:05.443Z,43.86
2018-07-25T11:13:05.442Z,42.61
2018-07-25T11:14:05.437Z,40.82
2018-07-25T11:15:05.428Z,40.94
2018-07-25T11:16:05.424Z,39.84
2018-07-25T11:17:05.420Z,41.03
2018-07-25T11:18:05.414Z,39.66
2018-07-25T11:19:05.410Z,39.76
2018-07-25T11:20:05.405Z,41.03
2018-07-25T11:21:05.399Z,41.24
2018-07-25T11:22:05.407Z,42.02
2018-07-25T11:23:05.501Z,42.02
2018-07-25T11:24:05.387Z,42.02
2018-07-25T11:25:05.381Z,43.00
2018-07-25T11:26:05.377Z,41.63
2018-07-25T11:27:05.372Z,43.51
2018-07-25T11:28:05.370Z,40.66
2018-07-25T11:29:05.363Z,40.96
2018-07-25T11:30:05.359Z,41.94
2018-07-25T11:31:05.355Z,41.17
2018-07-25T11:32:05.351Z,39.70
2018-07-25T11:33:05.345Z,40.09
2018-07-25T11:34:05.342Z,42.16
2018-07-25T11:35:05.338Z,40.90
2018-07-25T11:36:05.332Z,43.83
2018-07-25T11:37:05.327Z,39.80
2018-07-25T11:38:05.378Z,39.50
2018-07-25T11:39:05.319Z,38.72
2018-07-25T11:40:05.316Z,39.56
2018-07-25T11:41:05.314Z,39.66
2018-07-25T11:42:05.306Z,40.84
2018-07-25T11:43:05.301Z,42.10
2018-07-25T11:44:05.298Z,41.11
2018-07-25T11:45:05.294Z,40.72
2018-07-25T11:46:05.288Z,42.10
2018-07-25T11:47:05.285Z,42.10
2018-07-25T11:48:05.279Z,41.51
2018-07-25T11:49:05.275Z,40.64
2018-07-25T11:50:05.337Z,39.47
2018-07-25T11:51:05.266Z,41.82
2018-07-25T11:52:05.261Z,38.58
2018-07-25T11:53:05.257Z,40.96
2018-07-25T11:54:05.260Z,42.72
2018-07-25T11:55:05.247Z,42.63
2018-07-25T11:56:05.248Z,40.27
2018-07-25T11:57:05.238Z,41.08
2018-07-25T11:58:05.236Z,41.17
2018-07-25T11:59:05.232Z,40.48
2018-07-25T12:00:05.228Z,40.78
2018-07-25T12:01:05.259Z,40.88
2018-07-25T12:02:05.225Z,39.13
2018-07-25T12:03:05.224Z,40.31
2018-07-25T12:04:05.211Z,37.36
2018-07-25T12:05:05.206Z,39.72
2018-07-25T12:06:05.203Z,40.01
2018-07-25T12:07:05.201Z,40.48
2018-07-25T12:08:05.195Z,40.09
2018-07-25T12:09:05.193Z,39.80
2018-07-25T12:10:05.187Z,39.70
2018-07-25T12:11:05.183Z,39.13
2018-07-25T12:12:05.178Z,40.80
2018-07-25T12:13:05.215Z,36.59
2018-07-25T12:14:05.170Z,36.59
2018-07-25T12:15:05.173Z,35.92
2018-07-25T12:16:05.163Z,37.01
2018-07-25T12:17:05.160Z,36.61
2018-07-25T12:18:05.159Z,35.54
2018-07-25T12:19:05.154Z,35.27
2018-07-25T12:20:05.153Z,36.27
2018-07-25T12:21:05.146Z,35.91
2018-07-25T12:22:05.145Z,35.73
2018-07-25T12:23:05.139Z,34.28
2018-07-25T12:24:05.139Z,33.80
2018-07-25T12:25:05.139Z,33.92
2018-07-25T12:26:05.133Z,32.75
2018-07-25T12:27:05.141Z,33.17
2018-07-25T12:28:05.132Z,30.71
2018-07-25T12:29:05.126Z,28.53
2018-07-25T12:30:05.125Z,30.63
2018-07-25T12:31:05.124Z,30.33
2018-07-25T12:32:05.166Z,32.21
2018-07-25T12:33:05.124Z,30.65
2018-07-25T12:34:05.120Z,28.76
2018-07-25T12:35:05.114Z,27.39
2018-07-25T12:36:05.113Z,26.78
2018-07-25T12:37:05.111Z,28.86
2018-07-25T12:38:05.110Z,29.06
2018-07-25T12:39:05.108Z,30.13
2018-07-25T12:40:05.108Z,29.43
2018-07-25T12:41:05.107Z,29.43
2018-07-25T12:42:05.106Z,31.71
2018-07-25T12:43:05.106Z,28.52
2018-07-25T12:44:05.102Z,29.32
2018-07-25T12:45:05.098Z,29.61
2018-07-25T12:46:05.097Z,30.21
2018-07-25T12:47:05.097Z,30.99
2018-07-25T12:48:05.099Z,30.70
2018-07-25T12:49:05.095Z,30.80
2018-07-25T12:50:05.091Z,29.51
2018-07-25T12:51:05.091Z,30.80
2018-07-25T12:52:05.095Z,30.21
2018-07-25T12:53:05.086Z,29.02
2018-07-25T12:54:05.288Z,28.21
2018-07-25T12:55:05.084Z,29.20
2018-07-25T12:56:05.082Z,30.77